QFA471 YSSY-KLAX
Flight info
| Callsign | QFA471 |
|---|---|
| Flight time | N/A |
| Altitude | 35000 |
| Route | NOBAR A579 JORDY DCT 3005S16031E 2903S16300E 2848S16336E 2605S16903E 2513S17038E 2218S17517E 1942S17855E 1809S17904W 1547S17547W 1510S17457W 1258S17145W/N0483F370 1153S17010W 0937S16649W 0714S16332W 0500S16053W 0451S16042W 0317S15857W 0035N15510W 0152N15401W 0524N15102W/N0478F390 0907N14758W 1324N14404W 1613N14118W 1819N13904W 2207N13421W 2410N13141W 2715N12820W DCT FICKY GOATZ2 |
| Aircraft | A388/J-SADE2E3FGHIJ3J4J5M1RWXY/LB1D1 |
Departure
| Time | N/A |
|---|---|
| Airport | Sydney Kingsford Smith International Airport (YSSY) |
Arrival
| Time | 2026-05-07 14:55 |
|---|---|
| Airport | Los Angeles International Airport (KLAX) |
| Time | Latitude | Longitude | Altitude | Speed | Heading |
|---|---|---|---|---|---|
| 2026-05-07 13:55 | 32.05361 | -120.12819 | 40145 ft | 459 kts | 46° |
| 2026-05-07 14:03 | 32.06776 | -120.11027 | 40148 ft | 459 kts | 46° |
| 2026-05-07 14:04 | 32.11096 | -120.05555 | 39712 ft | 452 kts | 46° |
| 2026-05-07 14:04 | 32.13233 | -120.02849 | 39232 ft | 449 kts | 46° |
| 2026-05-07 14:04 | 32.15355 | -120.00161 | 38681 ft | 447 kts | 46° |
| 2026-05-07 14:04 | 32.17473 | -119.97476 | 37954 ft | 447 kts | 46° |
| 2026-05-07 14:05 | 32.19585 | -119.94797 | 37335 ft | 446 kts | 46° |
| 2026-05-07 14:05 | 32.21702 | -119.92111 | 36767 ft | 448 kts | 46° |
| 2026-05-07 14:05 | 32.23835 | -119.89401 | 36207 ft | 453 kts | 46° |
| 2026-05-07 14:05 | 32.25980 | -119.86675 | 35674 ft | 454 kts | 46° |
| 2026-05-07 14:06 | 32.28139 | -119.83928 | 35121 ft | 456 kts | 46° |
| 2026-05-07 14:06 | 32.30297 | -119.81180 | 34621 ft | 456 kts | 46° |
| 2026-05-07 14:06 | 32.32453 | -119.78433 | 34099 ft | 457 kts | 46° |
| 2026-05-07 14:06 | 32.34618 | -119.75673 | 33511 ft | 458 kts | 46° |
| 2026-05-07 14:07 | 32.36788 | -119.72905 | 32933 ft | 460 kts | 46° |
| 2026-05-07 14:07 | 32.38965 | -119.70125 | 32366 ft | 462 kts | 46° |
| 2026-05-07 14:07 | 32.41155 | -119.67327 | 31806 ft | 464 kts | 46° |
| 2026-05-07 14:07 | 32.43348 | -119.64523 | 31264 ft | 466 kts | 46° |
| 2026-05-07 14:08 | 32.45529 | -119.61732 | 30751 ft | 468 kts | 46° |
| 2026-05-07 14:08 | 32.47742 | -119.58897 | 30226 ft | 470 kts | 46° |
| 2026-05-07 14:08 | 32.49961 | -119.56053 | 29633 ft | 471 kts | 46° |
| 2026-05-07 14:08 | 32.52221 | -119.53152 | 29025 ft | 473 kts | 46° |
| 2026-05-07 14:09 | 32.54450 | -119.50290 | 28449 ft | 474 kts | 46° |
| 2026-05-07 14:09 | 32.56662 | -119.47449 | 27892 ft | 476 kts | 46° |
| 2026-05-07 14:09 | 32.58932 | -119.44529 | 27489 ft | 475 kts | 46° |
| 2026-05-07 14:09 | 32.61138 | -119.41690 | 27206 ft | 472 kts | 46° |
| 2026-05-07 14:10 | 32.63348 | -119.38842 | 26590 ft | 467 kts | 46° |
| 2026-05-07 14:10 | 32.65534 | -119.36024 | 25816 ft | 463 kts | 46° |
| 2026-05-07 14:10 | 32.67699 | -119.33230 | 25130 ft | 455 kts | 46° |
| 2026-05-07 14:10 | 32.69835 | -119.30472 | 24206 ft | 453 kts | 46° |
| 2026-05-07 14:11 | 32.71955 | -119.27734 | 23314 ft | 449 kts | 46° |
| 2026-05-07 14:11 | 32.74056 | -119.25018 | 22414 ft | 444 kts | 46° |
| 2026-05-07 14:11 | 32.76129 | -119.22335 | 21556 ft | 438 kts | 46° |
| 2026-05-07 14:11 | 32.77492 | -119.20571 | 20977 ft | 435 kts | 46° |
| 2026-05-07 14:12 | 32.79531 | -119.17930 | 20109 ft | 430 kts | 46° |
| 2026-05-07 14:12 | 32.81536 | -119.15331 | 19256 ft | 424 kts | 46° |
| 2026-05-07 14:12 | 32.83530 | -119.12743 | 18669 ft | 424 kts | 46° |
| 2026-05-07 14:12 | 32.85519 | -119.10162 | 18124 ft | 422 kts | 46° |
| 2026-05-07 14:13 | 32.87497 | -119.07594 | 17641 ft | 419 kts | 46° |
| 2026-05-07 14:13 | 32.89464 | -119.05036 | 17328 ft | 418 kts | 46° |
| 2026-05-07 14:13 | 32.91416 | -119.02496 | 17144 ft | 416 kts | 47° |
| 2026-05-07 14:13 | 32.93367 | -118.99956 | 17065 ft | 414 kts | 47° |
| 2026-05-07 14:14 | 32.95304 | -118.97433 | 16981 ft | 411 kts | 47° |
| 2026-05-07 14:14 | 32.97215 | -118.94941 | 16410 ft | 407 kts | 47° |
| 2026-05-07 14:14 | 32.99126 | -118.92449 | 16112 ft | 409 kts | 47° |
| 2026-05-07 14:14 | 33.01049 | -118.89938 | 16106 ft | 410 kts | 47° |
| 2026-05-07 14:15 | 33.02972 | -118.87426 | 16139 ft | 411 kts | 47° |
| 2026-05-07 14:15 | 33.04894 | -118.84913 | 16223 ft | 408 kts | 47° |
| 2026-05-07 14:15 | 33.06743 | -118.82492 | 16068 ft | 380 kts | 47° |
| 2026-05-07 14:15 | 33.08460 | -118.80242 | 16021 ft | 353 kts | 47° |
| 2026-05-07 14:16 | 33.10049 | -118.78158 | 16019 ft | 327 kts | 47° |
| 2026-05-07 14:16 | 33.11518 | -118.76231 | 16017 ft | 303 kts | 47° |
| 2026-05-07 14:16 | 33.12900 | -118.74418 | 16022 ft | 294 kts | 47° |
| 2026-05-07 14:16 | 33.14317 | -118.72562 | 16025 ft | 311 kts | 47° |
| 2026-05-07 14:17 | 33.15808 | -118.70608 | 16018 ft | 327 kts | 47° |
| 2026-05-07 14:17 | 33.17365 | -118.68565 | 16015 ft | 337 kts | 47° |
| 2026-05-07 14:17 | 33.18948 | -118.66484 | 16015 ft | 338 kts | 47° |
| 2026-05-07 14:17 | 33.20490 | -118.64370 | 16017 ft | 338 kts | 49° |
| 2026-05-07 14:18 | 33.22004 | -118.62223 | 16015 ft | 338 kts | 50° |
| 2026-05-07 14:18 | 33.23511 | -118.60075 | 16015 ft | 337 kts | 49° |
| 2026-05-07 14:18 | 33.25024 | -118.57930 | 16015 ft | 338 kts | 49° |
| 2026-05-07 14:18 | 33.26543 | -118.55786 | 16009 ft | 338 kts | 49° |
| 2026-05-07 14:19 | 33.28067 | -118.53640 | 16008 ft | 338 kts | 49° |
| 2026-05-07 14:19 | 33.29589 | -118.51498 | 16005 ft | 338 kts | 49° |
| 2026-05-07 14:19 | 33.31111 | -118.49356 | 15990 ft | 337 kts | 49° |
| 2026-05-07 14:19 | 33.32615 | -118.47219 | 15773 ft | 334 kts | 53° |
| 2026-05-07 14:20 | 33.33726 | -118.44792 | 15249 ft | 334 kts | 70° |
| 2026-05-07 14:20 | 33.34113 | -118.42060 | 14872 ft | 334 kts | 87° |
| 2026-05-07 14:20 | 33.33970 | -118.39290 | 14384 ft | 333 kts | 92° |
| 2026-05-07 14:20 | 33.33804 | -118.36576 | 14105 ft | 330 kts | 91° |
| 2026-05-07 14:21 | 33.33647 | -118.33849 | 14014 ft | 328 kts | 91° |
| 2026-05-07 14:21 | 33.33495 | -118.31132 | 14006 ft | 328 kts | 91° |
| 2026-05-07 14:21 | 33.33344 | -118.28409 | 14004 ft | 328 kts | 91° |
| 2026-05-07 14:21 | 33.33191 | -118.25682 | 14013 ft | 329 kts | 91° |
| 2026-05-07 14:22 | 33.33038 | -118.22960 | 14007 ft | 328 kts | 91° |
| 2026-05-07 14:22 | 33.32883 | -118.20241 | 14007 ft | 328 kts | 91° |
| 2026-05-07 14:22 | 33.32729 | -118.17520 | 14007 ft | 328 kts | 91° |
| 2026-05-07 14:22 | 33.32573 | -118.14799 | 14007 ft | 328 kts | 91° |
| 2026-05-07 14:23 | 33.32486 | -118.12084 | 14003 ft | 326 kts | 83° |
| 2026-05-07 14:23 | 33.33045 | -118.09482 | 14007 ft | 324 kts | 64° |
| 2026-05-07 14:23 | 33.34311 | -118.07273 | 14008 ft | 323 kts | 47° |
| 2026-05-07 14:23 | 33.35891 | -118.05357 | 14006 ft | 323 kts | 46° |
| 2026-05-07 14:24 | 33.37455 | -118.03438 | 13643 ft | 321 kts | 46° |
| 2026-05-07 14:24 | 33.39011 | -118.01548 | 13041 ft | 317 kts | 41° |
| 2026-05-07 14:24 | 33.40892 | -118.00201 | 12343 ft | 317 kts | 19° |
| 2026-05-07 14:24 | 33.43072 | -117.99768 | 11904 ft | 321 kts | 0° |
| 2026-05-07 14:25 | 33.45301 | -117.99898 | 11464 ft | 320 kts | 360° |
| 2026-05-07 14:25 | 33.47509 | -118.00012 | 11031 ft | 316 kts | 360° |
| 2026-05-07 14:25 | 33.49696 | -118.00114 | 10601 ft | 314 kts | 360° |
| 2026-05-07 14:25 | 33.51867 | -118.00213 | 10171 ft | 311 kts | 360° |
| 2026-05-07 14:26 | 33.54025 | -118.00313 | 9727 ft | 309 kts | 359° |
| 2026-05-07 14:26 | 33.56169 | -118.00414 | 9275 ft | 308 kts | 359° |
| 2026-05-07 14:26 | 33.58310 | -118.00516 | 9050 ft | 307 kts | 359° |
| 2026-05-07 14:26 | 33.60443 | -118.00616 | 8981 ft | 305 kts | 359° |
| 2026-05-07 14:27 | 33.62529 | -118.00709 | 8819 ft | 296 kts | 359° |
| 2026-05-07 14:27 | 33.64585 | -118.00850 | 8293 ft | 296 kts | 353° |
| 2026-05-07 14:27 | 33.66585 | -118.01412 | 8054 ft | 296 kts | 345° |
| 2026-05-07 14:27 | 33.68559 | -118.02126 | 7995 ft | 298 kts | 345° |
| 2026-05-07 14:28 | 33.70552 | -118.02813 | 7943 ft | 297 kts | 346° |
| 2026-05-07 14:28 | 33.72540 | -118.03489 | 7664 ft | 295 kts | 346° |
| 2026-05-07 14:28 | 33.74518 | -118.04163 | 7213 ft | 295 kts | 345° |
| 2026-05-07 14:28 | 33.76488 | -118.04838 | 7030 ft | 295 kts | 345° |
| 2026-05-07 14:29 | 33.78459 | -118.05528 | 6913 ft | 295 kts | 342° |
| 2026-05-07 14:29 | 33.80340 | -118.06428 | 6779 ft | 285 kts | 339° |
| 2026-05-07 14:29 | 33.82139 | -118.07301 | 6655 ft | 272 kts | 339° |
| 2026-05-07 14:29 | 33.83881 | -118.08138 | 6156 ft | 269 kts | 339° |
| 2026-05-07 14:30 | 33.85616 | -118.08968 | 5560 ft | 269 kts | 338° |
| 2026-05-07 14:30 | 33.87352 | -118.09799 | 5144 ft | 267 kts | 338° |
| 2026-05-07 14:30 | 33.89075 | -118.10626 | 5014 ft | 266 kts | 338° |
| 2026-05-07 14:30 | 33.90828 | -118.11271 | 4907 ft | 261 kts | 356° |
| 2026-05-07 14:31 | 33.92567 | -118.10974 | 4814 ft | 251 kts | 24° |
| 2026-05-07 14:31 | 33.93920 | -118.09751 | 4696 ft | 238 kts | 53° |
| 2026-05-07 14:31 | 33.94613 | -118.08005 | 4360 ft | 231 kts | 80° |
| 2026-05-07 14:31 | 33.94510 | -118.06085 | 4119 ft | 233 kts | 102° |
| 2026-05-07 14:32 | 33.94182 | -118.04190 | 3991 ft | 229 kts | 101° |
| 2026-05-07 14:32 | 33.93950 | -118.02316 | 3964 ft | 225 kts | 86° |
| 2026-05-07 14:32 | 33.94425 | -118.00539 | 3990 ft | 227 kts | 54° |
| 2026-05-07 14:32 | 33.95617 | -117.99333 | 3989 ft | 227 kts | 22° |
| 2026-05-07 14:33 | 33.97158 | -117.99083 | 3983 ft | 226 kts | 348° |
| 2026-05-07 14:33 | 33.98493 | -118.00009 | 3988 ft | 226 kts | 308° |
| 2026-05-07 14:33 | 33.99046 | -118.01748 | 3992 ft | 226 kts | 274° |
| 2026-05-07 14:33 | 33.98944 | -118.04083 | 3984 ft | 226 kts | 262° |
| 2026-05-07 14:34 | 33.98534 | -118.07826 | 3981 ft | 222 kts | 264° |
| 2026-05-07 14:34 | 33.98160 | -118.11469 | 3985 ft | 222 kts | 264° |
| 2026-05-07 14:34 | 33.97859 | -118.14401 | 3983 ft | 223 kts | 264° |
| 2026-05-07 14:34 | 33.97671 | -118.16246 | 3931 ft | 222 kts | 264° |
| 2026-05-07 14:35 | 33.97487 | -118.18014 | 3651 ft | 200 kts | 264° |
| 2026-05-07 14:35 | 33.97328 | -118.19565 | 3403 ft | 175 kts | 264° |
| 2026-05-07 14:35 | 33.97188 | -118.20928 | 3199 ft | 156 kts | 263° |
| 2026-05-07 14:35 | 33.97060 | -118.22189 | 3001 ft | 149 kts | 264° |
| 2026-05-07 14:36 | 33.96934 | -118.23410 | 2811 ft | 149 kts | 263° |
| 2026-05-07 14:36 | 33.96807 | -118.24654 | 2615 ft | 151 kts | 263° |
| 2026-05-07 14:36 | 33.96678 | -118.25908 | 2413 ft | 152 kts | 263° |
| 2026-05-07 14:36 | 33.96550 | -118.27156 | 2213 ft | 150 kts | 263° |
| 2026-05-07 14:37 | 33.96420 | -118.28421 | 2022 ft | 150 kts | 263° |
| 2026-05-07 14:37 | 33.96163 | -118.30920 | 1614 ft | 150 kts | 263° |
| 2026-05-07 14:37 | 33.96035 | -118.32163 | 1416 ft | 149 kts | 263° |
| 2026-05-07 14:38 | 33.95910 | -118.33385 | 1219 ft | 149 kts | 262° |
| 2026-05-07 14:38 | 33.95784 | -118.34610 | 1023 ft | 146 kts | 262° |
| 2026-05-07 14:38 | 33.95661 | -118.35814 | 828 ft | 144 kts | 263° |
| 2026-05-07 14:38 | 33.95540 | -118.36994 | 650 ft | 141 kts | 263° |
| 2026-05-07 14:39 | 33.95422 | -118.38154 | 457 ft | 138 kts | 263° |
| 2026-05-07 14:39 | 33.95306 | -118.39306 | 293 ft | 141 kts | 262° |
| 2026-05-07 14:39 | 33.95166 | -118.40463 | 123 ft | 141 kts | 262° |
| 2026-05-07 14:39 | 33.95029 | -118.41638 | 269 ft | 146 kts | 265° |
| 2026-05-07 14:40 | 33.94948 | -118.42949 | 675 ft | 166 kts | 265° |
| 2026-05-07 14:40 | 33.94844 | -118.44390 | 1108 ft | 175 kts | 263° |
| 2026-05-07 14:40 | 33.94641 | -118.45810 | 2000 ft | 167 kts | 261° |
| 2026-05-07 14:40 | 33.94435 | -118.47151 | 2607 ft | 160 kts | 265° |
| 2026-05-07 14:41 | 33.94604 | -118.48463 | 2893 ft | 163 kts | 287° |
| 2026-05-07 14:41 | 33.95030 | -118.49862 | 3010 ft | 195 kts | 300° |
| 2026-05-07 14:41 | 33.96083 | -118.51019 | 3000 ft | 220 kts | 334° |
| 2026-05-07 14:41 | 33.97626 | -118.51348 | 2996 ft | 234 kts | 1° |
| 2026-05-07 14:42 | 33.99264 | -118.51282 | 2995 ft | 235 kts | 1° |
| 2026-05-07 14:42 | 34.00860 | -118.50993 | 2993 ft | 234 kts | 23° |
| 2026-05-07 14:42 | 34.02136 | -118.49810 | 2989 ft | 234 kts | 54° |
| 2026-05-07 14:42 | 34.02947 | -118.48107 | 2984 ft | 235 kts | 62° |
| 2026-05-07 14:43 | 34.03724 | -118.46383 | 2984 ft | 234 kts | 61° |
| 2026-05-07 14:43 | 34.04501 | -118.44665 | 2985 ft | 234 kts | 61° |
| 2026-05-07 14:43 | 34.05282 | -118.42938 | 2985 ft | 234 kts | 61° |
| 2026-05-07 14:43 | 34.06059 | -118.41220 | 2982 ft | 234 kts | 61° |
| 2026-05-07 14:44 | 34.06838 | -118.39497 | 2982 ft | 234 kts | 61° |
| 2026-05-07 14:44 | 34.07616 | -118.37774 | 2983 ft | 234 kts | 62° |
| 2026-05-07 14:44 | 34.08398 | -118.36052 | 2994 ft | 236 kts | 62° |
| 2026-05-07 14:44 | 34.09198 | -118.34322 | 2980 ft | 236 kts | 61° |
| 2026-05-07 14:45 | 34.09930 | -118.32559 | 2982 ft | 235 kts | 69° |
| 2026-05-07 14:45 | 34.10479 | -118.30702 | 2982 ft | 235 kts | 71° |
| 2026-05-07 14:45 | 34.11006 | -118.28847 | 2980 ft | 233 kts | 72° |
| 2026-05-07 14:45 | 34.11214 | -118.26930 | 2981 ft | 233 kts | 98° |
| 2026-05-07 14:46 | 34.10927 | -118.25002 | 2980 ft | 233 kts | 101° |
| 2026-05-07 14:46 | 34.10640 | -118.23078 | 2979 ft | 233 kts | 101° |
| 2026-05-07 14:46 | 34.10354 | -118.21151 | 2980 ft | 233 kts | 100° |
| 2026-05-07 14:46 | 34.10067 | -118.19235 | 2978 ft | 233 kts | 100° |
| 2026-05-07 14:47 | 34.09781 | -118.17333 | 2979 ft | 227 kts | 100° |
| 2026-05-07 14:47 | 34.09512 | -118.15462 | 2986 ft | 226 kts | 100° |
| 2026-05-07 14:47 | 34.09249 | -118.13595 | 2983 ft | 225 kts | 100° |
| 2026-05-07 14:47 | 34.08983 | -118.11727 | 2981 ft | 226 kts | 100° |
| 2026-05-07 14:48 | 34.08708 | -118.09863 | 2982 ft | 226 kts | 103° |
| 2026-05-07 14:48 | 34.08172 | -118.08080 | 2978 ft | 228 kts | 125° |
| 2026-05-07 14:48 | 34.07004 | -118.06820 | 2980 ft | 227 kts | 150° |
| 2026-05-07 14:48 | 34.05626 | -118.05904 | 2979 ft | 227 kts | 152° |
| 2026-05-07 14:49 | 34.04245 | -118.04996 | 2981 ft | 226 kts | 154° |
| 2026-05-07 14:49 | 34.02722 | -118.04603 | 2987 ft | 226 kts | 185° |
| 2026-05-07 14:49 | 34.01264 | -118.05239 | 2986 ft | 225 kts | 218° |
| 2026-05-07 14:49 | 34.00320 | -118.06702 | 2991 ft | 224 kts | 248° |
| 2026-05-07 14:50 | 33.99806 | -118.08475 | 2984 ft | 224 kts | 251° |
| 2026-05-07 14:50 | 33.99306 | -118.10216 | 2984 ft | 222 kts | 251° |
| 2026-05-07 14:50 | 33.98789 | -118.12000 | 2986 ft | 222 kts | 251° |
| 2026-05-07 14:50 | 33.98265 | -118.13713 | 2982 ft | 220 kts | 250° |
| 2026-05-07 14:51 | 33.97812 | -118.15493 | 2985 ft | 220 kts | 258° |
| 2026-05-07 14:51 | 33.97556 | -118.17276 | 2984 ft | 219 kts | 263° |
| 2026-05-07 14:51 | 33.97381 | -118.19104 | 2987 ft | 220 kts | 263° |
| 2026-05-07 14:51 | 33.97187 | -118.20930 | 2991 ft | 220 kts | 263° |
| 2026-05-07 14:52 | 33.97004 | -118.22751 | 2932 ft | 220 kts | 263° |
| 2026-05-07 14:52 | 33.96812 | -118.24599 | 2648 ft | 223 kts | 263° |
| 2026-05-07 14:52 | 33.96622 | -118.26454 | 2338 ft | 222 kts | 263° |
| 2026-05-07 14:52 | 33.96439 | -118.28241 | 2060 ft | 203 kts | 263° |
| 2026-05-07 14:53 | 33.96278 | -118.29799 | 1784 ft | 174 kts | 263° |
| 2026-05-07 14:53 | 33.96140 | -118.31149 | 1576 ft | 154 kts | 263° |
| 2026-05-07 14:53 | 33.96011 | -118.32396 | 1369 ft | 148 kts | 263° |
| 2026-05-07 14:53 | 33.95886 | -118.33618 | 1180 ft | 146 kts | 262° |
| 2026-05-07 14:54 | 33.95763 | -118.34819 | 990 ft | 142 kts | 262° |
| 2026-05-07 14:54 | 33.95644 | -118.35984 | 806 ft | 141 kts | 263° |
| 2026-05-07 14:54 | 33.95524 | -118.37153 | 631 ft | 140 kts | 263° |
| 2026-05-07 14:54 | 33.95407 | -118.38306 | 421 ft | 138 kts | 263° |
| 2026-05-07 14:55 | 33.95284 | -118.39458 | 235 ft | 139 kts | 263° |
| 2026-05-07 14:55 | 33.95159 | -118.40596 | 105 ft | 136 kts | 263° |
| 2026-05-07 14:55 | 33.95080 | -118.41569 | 101 ft | 91 kts | 261° |
| 2026-05-07 14:55 | 33.95008 | -118.42063 | 101 ft | 31 kts | 250° |
| 2026-05-07 14:56 | 33.94906 | -118.42231 | 102 ft | 23 kts | 226° |
| 2026-05-07 14:56 | 33.94775 | -118.42289 | 102 ft | 20 kts | 172° |
| 2026-05-07 14:56 | 33.94637 | -118.42254 | 99 ft | 16 kts | 137° |
| 2026-05-07 14:56 | 33.94621 | -118.42133 | 98 ft | 17 kts | 91° |
| 2026-05-07 14:57 | 33.94626 | -118.41974 | 99 ft | 20 kts | 85° |
| 2026-05-07 14:57 | 33.94639 | -118.41793 | 98 ft | 23 kts | 84° |
| 2026-05-07 14:57 | 33.94659 | -118.41595 | 99 ft | 25 kts | 83° |
| 2026-05-07 14:57 | 33.94666 | -118.41532 | 99 ft | 3 kts | 83° |
| 2026-05-07 14:58 | 33.94670 | -118.41500 | 98 ft | 8 kts | 83° |
| 2026-05-07 14:58 | 33.94673 | -118.41464 | 98 ft | 0 kts | 83° |
| 2026-05-07 14:59 | 33.94677 | -118.41430 | 100 ft | 10 kts | 84° |
| 2026-05-07 14:59 | 33.94626 | -118.41364 | 99 ft | 15 kts | 181° |
| 2026-05-07 14:59 | 33.94489 | -118.41353 | 99 ft | 24 kts | 173° |
| 2026-05-07 14:59 | 33.94341 | -118.41332 | 99 ft | 12 kts | 173° |
| 2026-05-07 15:00 | 33.94308 | -118.41327 | 98 ft | 3 kts | 168° |
| 2026-05-07 15:00 | 33.94279 | -118.41310 | 98 ft | 7 kts | 141° |
| 2026-05-07 15:00 | 33.94261 | -118.41263 | 99 ft | 9 kts | 115° |
| 2026-05-07 15:00 | 33.94211 | -118.41219 | 99 ft | 11 kts | 160° |
| 2026-05-07 15:01 | 33.94170 | -118.41164 | 100 ft | 9 kts | 78° |
| 2026-05-07 15:01 | 33.94176 | -118.41105 | 98 ft | 0 kts | 84° |
| 2026-05-07 15:01 | 33.94177 | -118.41100 | 98 ft | 0 kts | 83° |